sensor_id;sensor_type;location;lat;lon;timestamp;P1;durP1;ratioP1;P2;durP2;ratioP2
42964;SDS011;28604;51.204;22.552;2022-12-31T14:32:07;5.07;;;2.90;;
42964;SDS011;28604;51.204;22.552;2022-12-31T14:34:52;2.63;;;2.38;;
42964;SDS011;28604;51.204;22.552;2022-12-31T14:53:20;47.75;;;8.93;;
42964;SDS011;28604;51.204;22.552;2022-12-31T14:58:35;10.75;;;6.60;;
42964;SDS011;28604;51.204;22.552;2022-12-31T15:03:43;12.50;;;7.18;;
42964;SDS011;28604;51.204;22.552;2022-12-31T15:11:15;14.13;;;8.45;;
42964;SDS011;28604;51.204;22.552;2022-12-31T15:16:42;15.65;;;9.38;;
42964;SDS011;28604;51.204;22.552;2022-12-31T15:22:03;17.75;;;9.27;;
42964;SDS011;28604;51.204;22.552;2022-12-31T15:24:43;16.20;;;9.60;;
42964;SDS011;28604;51.204;22.552;2022-12-31T15:29:55;13.38;;;8.68;;
42964;SDS011;28604;51.204;22.552;2022-12-31T15:32:22;19.75;;;9.35;;
42964;SDS011;28604;51.204;22.552;2022-12-31T15:37:34;15.60;;;8.75;;
42964;SDS011;28604;51.204;22.552;2022-12-31T15:40:18;14.18;;;8.10;;
42964;SDS011;28604;51.204;22.552;2022-12-31T15:42:51;14.85;;;7.97;;
42964;SDS011;28604;51.204;22.552;2022-12-31T15:45:31;13.45;;;8.10;;
42964;SDS011;28604;51.204;22.552;2022-12-31T15:48:04;12.45;;;8.10;;
42964;SDS011;28604;51.204;22.552;2022-12-31T15:50:34;13.70;;;7.90;;
42964;SDS011;28604;51.204;22.552;2022-12-31T15:53:03;14.25;;;9.25;;
42964;SDS011;28604;51.204;22.552;2022-12-31T15:55:37;13.25;;;7.43;;
42964;SDS011;28604;51.204;22.552;2022-12-31T15:58:15;11.20;;;6.80;;
42964;SDS011;28604;51.204;22.552;2022-12-31T16:03:21;12.65;;;7.35;;
42964;SDS011;28604;51.204;22.552;2022-12-31T16:05:49;15.52;;;9.18;;
42964;SDS011;28604;51.204;22.552;2022-12-31T16:08:17;17.60;;;8.43;;
42964;SDS011;28604;51.204;22.552;2022-12-31T16:10:45;12.57;;;8.30;;
42964;SDS011;28604;51.204;22.552;2022-12-31T16:13:19;15.48;;;8.65;;
42964;SDS011;28604;51.204;22.552;2022-12-31T16:15:47;18.30;;;8.50;;
42964;SDS011;28604;51.204;22.552;2022-12-31T16:18:17;15.82;;;9.00;;
42964;SDS011;28604;51.204;22.552;2022-12-31T16:20:44;16.35;;;8.68;;
42964;SDS011;28604;51.204;22.552;2022-12-31T16:23:21;11.55;;;7.85;;
42964;SDS011;28604;51.204;22.552;2022-12-31T16:25:49;11.05;;;7.63;;
42964;SDS011;28604;51.204;22.552;2022-12-31T16:28:19;12.48;;;8.10;;
42964;SDS011;28604;51.204;22.552;2022-12-31T16:30:59;11.70;;;7.75;;
42964;SDS011;28604;51.204;22.552;2022-12-31T16:33:31;12.93;;;8.38;;
42964;SDS011;28604;51.204;22.552;2022-12-31T16:35:58;13.30;;;8.85;;
42964;SDS011;28604;51.204;22.552;2022-12-31T16:38:30;16.60;;;9.30;;
42964;SDS011;28604;51.204;22.552;2022-12-31T16:43:30;12.38;;;8.25;;
42964;SDS011;28604;51.204;22.552;2022-12-31T16:51:22;13.20;;;8.43;;
42964;SDS011;28604;51.204;22.552;2022-12-31T16:53:53;12.50;;;8.03;;
42964;SDS011;28604;51.204;22.552;2022-12-31T16:56:32;13.77;;;8.63;;
42964;SDS011;28604;51.204;22.552;2022-12-31T16:59:02;15.50;;;9.03;;
42964;SDS011;28604;51.204;22.552;2022-12-31T17:01:39;13.10;;;8.43;;
42964;SDS011;28604;51.204;22.552;2022-12-31T17:04:08;9.85;;;7.22;;
42964;SDS011;28604;51.204;22.552;2022-12-31T17:06:41;15.63;;;7.65;;
42964;SDS011;28604;51.204;22.552;2022-12-31T17:09:12;13.30;;;7.70;;
42964;SDS011;28604;51.204;22.552;2022-12-31T17:11:52;11.65;;;7.75;;
42964;SDS011;28604;51.204;22.552;2022-12-31T17:14:22;15.93;;;9.25;;
42964;SDS011;28604;51.204;22.552;2022-12-31T17:19:38;15.73;;;9.77;;
42964;SDS011;28604;51.204;22.552;2022-12-31T17:22:23;16.75;;;9.68;;
42964;SDS011;28604;51.204;22.552;2022-12-31T17:25:06;12.55;;;8.30;;
42964;SDS011;28604;51.204;22.552;2022-12-31T17:27:55;16.10;;;8.45;;
42964;SDS011;28604;51.204;22.552;2022-12-31T17:35:44;18.10;;;9.75;;
42964;SDS011;28604;51.204;22.552;2022-12-31T17:38:18;19.88;;;9.25;;
42964;SDS011;28604;51.204;22.552;2022-12-31T17:41:02;15.48;;;8.95;;
42964;SDS011;28604;51.204;22.552;2022-12-31T17:43:38;16.02;;;9.88;;
42964;SDS011;28604;51.204;22.552;2022-12-31T17:46:13;16.95;;;9.50;;
42964;SDS011;28604;51.204;22.552;2022-12-31T17:48:40;18.55;;;11.02;;
42964;SDS011;28604;51.204;22.552;2022-12-31T17:51:08;17.00;;;10.80;;
42964;SDS011;28604;51.204;22.552;2022-12-31T17:53:34;19.48;;;11.27;;
42964;SDS011;28604;51.204;22.552;2022-12-31T17:56:02;15.75;;;10.23;;
42964;SDS011;28604;51.204;22.552;2022-12-31T17:58:31;15.63;;;9.57;;
42964;SDS011;28604;51.204;22.552;2022-12-31T18:01:01;19.17;;;10.38;;
42964;SDS011;28604;51.204;22.552;2022-12-31T18:03:30;16.60;;;9.80;;
42964;SDS011;28604;51.204;22.552;2022-12-31T18:05:56;17.98;;;10.65;;
42964;SDS011;28604;51.204;22.552;2022-12-31T18:08:22;18.60;;;11.15;;
42964;SDS011;28604;51.204;22.552;2022-12-31T18:10:48;20.05;;;10.73;;
42964;SDS011;28604;51.204;22.552;2022-12-31T18:13:17;19.40;;;10.95;;
42964;SDS011;28604;51.204;22.552;2022-12-31T18:21:33;17.00;;;10.68;;
42964;SDS011;28604;51.204;22.552;2022-12-31T18:24:01;23.25;;;11.45;;
42964;SDS011;28604;51.204;22.552;2022-12-31T18:26:28;26.05;;;13.43;;
42964;SDS011;28604;51.204;22.552;2022-12-31T18:28:54;24.38;;;13.25;;
42964;SDS011;28604;51.204;22.552;2022-12-31T18:31:28;19.42;;;12.52;;
42964;SDS011;28604;51.204;22.552;2022-12-31T18:33:55;31.67;;;19.80;;
42964;SDS011;28604;51.204;22.552;2022-12-31T18:36:23;26.88;;;16.00;;
42964;SDS011;28604;51.204;22.552;2022-12-31T18:38:49;18.13;;;11.32;;
42964;SDS011;28604;51.204;22.552;2022-12-31T18:43:43;16.98;;;9.48;;
42964;SDS011;28604;51.204;22.552;2022-12-31T18:46:14;15.73;;;9.52;;
42964;SDS011;28604;51.204;22.552;2022-12-31T18:51:41;19.08;;;10.23;;
42964;SDS011;28604;51.204;22.552;2022-12-31T18:54:08;17.85;;;10.43;;
42964;SDS011;28604;51.204;22.552;2022-12-31T18:56:35;19.50;;;10.50;;
42964;SDS011;28604;51.204;22.552;2022-12-31T18:59:02;15.75;;;9.77;;
42964;SDS011;28604;51.204;22.552;2022-12-31T19:01:32;21.52;;;11.63;;
42964;SDS011;28604;51.204;22.552;2022-12-31T19:04:00;14.77;;;9.13;;
42964;SDS011;28604;51.204;22.552;2022-12-31T19:06:28;15.07;;;9.63;;
42964;SDS011;28604;51.204;22.552;2022-12-31T19:08:55;19.13;;;10.10;;
42964;SDS011;28604;51.204;22.552;2022-12-31T19:11:21;16.05;;;9.30;;
42964;SDS011;28604;51.204;22.552;2022-12-31T19:13:47;19.98;;;10.75;;
42964;SDS011;28604;51.204;22.552;2022-12-31T19:16:14;22.33;;;11.43;;
42964;SDS011;28604;51.204;22.552;2022-12-31T19:18:40;17.75;;;10.68;;
42964;SDS011;28604;51.204;22.552;2022-12-31T19:21:16;17.60;;;10.00;;
42964;SDS011;28604;51.204;22.552;2022-12-31T19:23:44;18.15;;;10.85;;
42964;SDS011;28604;51.204;22.552;2022-12-31T19:26:14;16.77;;;9.73;;
42964;SDS011;28604;51.204;22.552;2022-12-31T19:28:43;18.23;;;10.43;;
42964;SDS011;28604;51.204;22.552;2022-12-31T19:31:09;18.17;;;10.63;;
42964;SDS011;28604;51.204;22.552;2022-12-31T19:33:35;19.83;;;10.00;;
42964;SDS011;28604;51.204;22.552;2022-12-31T19:36:01;16.15;;;9.30;;
42964;SDS011;28604;51.204;22.552;2022-12-31T19:38:28;17.45;;;9.73;;
42964;SDS011;28604;51.204;22.552;2022-12-31T19:40:56;14.40;;;9.55;;
42964;SDS011;28604;51.204;22.552;2022-12-31T19:43:22;16.08;;;9.60;;
42964;SDS011;28604;51.204;22.552;2022-12-31T19:45:49;15.38;;;9.63;;
42964;SDS011;28604;51.204;22.552;2022-12-31T19:48:22;17.08;;;10.02;;
42964;SDS011;28604;51.204;22.552;2022-12-31T19:50:50;20.67;;;10.40;;
42964;SDS011;28604;51.204;22.552;2022-12-31T19:53:19;15.60;;;10.10;;
42964;SDS011;28604;51.204;22.552;2022-12-31T19:55:47;19.05;;;11.35;;
42964;SDS011;28604;51.204;22.552;2022-12-31T19:58:18;20.85;;;11.40;;
42964;SDS011;28604;51.204;22.552;2022-12-31T20:00:45;17.13;;;10.05;;
42964;SDS011;28604;51.204;22.552;2022-12-31T20:03:13;17.88;;;10.07;;
42964;SDS011;28604;51.204;22.552;2022-12-31T20:05:40;15.38;;;9.32;;
42964;SDS011;28604;51.204;22.552;2022-12-31T20:08:06;14.82;;;8.93;;
42964;SDS011;28604;51.204;22.552;2022-12-31T20:10:33;17.33;;;10.65;;
42964;SDS011;28604;51.204;22.552;2022-12-31T20:12:59;16.38;;;9.60;;
42964;SDS011;28604;51.204;22.552;2022-12-31T20:15:25;16.58;;;10.95;;
42964;SDS011;28604;51.204;22.552;2022-12-31T20:17:51;17.77;;;10.23;;
42964;SDS011;28604;51.204;22.552;2022-12-31T20:20:16;19.58;;;10.48;;
42964;SDS011;28604;51.204;22.552;2022-12-31T20:22:43;16.80;;;9.82;;
42964;SDS011;28604;51.204;22.552;2022-12-31T20:25:08;16.27;;;9.50;;
42964;SDS011;28604;51.204;22.552;2022-12-31T20:27:35;15.75;;;10.75;;
42964;SDS011;28604;51.204;22.552;2022-12-31T20:30:01;18.23;;;10.48;;
42964;SDS011;28604;51.204;22.552;2022-12-31T20:32:27;16.17;;;10.10;;
42964;SDS011;28604;51.204;22.552;2022-12-31T20:34:53;15.15;;;9.82;;
42964;SDS011;28604;51.204;22.552;2022-12-31T20:37:19;15.52;;;9.70;;
42964;SDS011;28604;51.204;22.552;2022-12-31T20:39:45;19.92;;;10.10;;
42964;SDS011;28604;51.204;22.552;2022-12-31T20:42:11;18.30;;;10.27;;
42964;SDS011;28604;51.204;22.552;2022-12-31T20:44:37;20.15;;;11.43;;
42964;SDS011;28604;51.204;22.552;2022-12-31T20:47:03;16.73;;;10.50;;
42964;SDS011;28604;51.204;22.552;2022-12-31T20:49:28;22.50;;;11.35;;
42964;SDS011;28604;51.204;22.552;2022-12-31T20:51:55;16.58;;;10.65;;
42964;SDS011;28604;51.204;22.552;2022-12-31T20:54:20;18.67;;;11.13;;
42964;SDS011;28604;51.204;22.552;2022-12-31T20:56:47;13.82;;;9.45;;
42964;SDS011;28604;51.204;22.552;2022-12-31T20:59:12;19.42;;;10.82;;
42964;SDS011;28604;51.204;22.552;2022-12-31T21:01:39;17.17;;;10.30;;
42964;SDS011;28604;51.204;22.552;2022-12-31T21:04:05;18.25;;;10.55;;
42964;SDS011;28604;51.204;22.552;2022-12-31T21:06:31;20.30;;;9.95;;
42964;SDS011;28604;51.204;22.552;2022-12-31T21:08:59;19.00;;;10.57;;
42964;SDS011;28604;51.204;22.552;2022-12-31T21:11:26;17.15;;;10.63;;
42964;SDS011;28604;51.204;22.552;2022-12-31T21:14:10;18.00;;;10.63;;
42964;SDS011;28604;51.204;22.552;2022-12-31T21:16:36;18.20;;;10.95;;
42964;SDS011;28604;51.204;22.552;2022-12-31T21:19:02;16.75;;;10.88;;
42964;SDS011;28604;51.204;22.552;2022-12-31T21:21:28;14.45;;;9.40;;
42964;SDS011;28604;51.204;22.552;2022-12-31T21:23:54;16.88;;;9.95;;
42964;SDS011;28604;51.204;22.552;2022-12-31T21:26:20;25.13;;;13.05;;
42964;SDS011;28604;51.204;22.552;2022-12-31T21:28:46;19.75;;;11.02;;
42964;SDS011;28604;51.204;22.552;2022-12-31T21:31:12;19.58;;;10.63;;
42964;SDS011;28604;51.204;22.552;2022-12-31T21:33:42;18.23;;;10.98;;
42964;SDS011;28604;51.204;22.552;2022-12-31T21:36:09;15.65;;;10.82;;
42964;SDS011;28604;51.204;22.552;2022-12-31T21:38:35;20.73;;;11.88;;
42964;SDS011;28604;51.204;22.552;2022-12-31T21:41:02;18.50;;;10.88;;
42964;SDS011;28604;51.204;22.552;2022-12-31T21:43:29;19.75;;;11.80;;
42964;SDS011;28604;51.204;22.552;2022-12-31T21:45:59;19.73;;;11.27;;
42964;SDS011;28604;51.204;22.552;2022-12-31T21:48:29;20.25;;;11.60;;
42964;SDS011;28604;51.204;22.552;2022-12-31T21:51:11;23.38;;;11.80;;
42964;SDS011;28604;51.204;22.552;2022-12-31T21:53:39;16.52;;;9.20;;
42964;SDS011;28604;51.204;22.552;2022-12-31T21:56:05;18.35;;;10.68;;
42964;SDS011;28604;51.204;22.552;2022-12-31T21:58:38;21.80;;;10.38;;
42964;SDS011;28604;51.204;22.552;2022-12-31T22:01:05;14.90;;;9.88;;
42964;SDS011;28604;51.204;22.552;2022-12-31T22:03:50;19.52;;;11.57;;
42964;SDS011;28604;51.204;22.552;2022-12-31T22:06:17;20.20;;;11.02;;
42964;SDS011;28604;51.204;22.552;2022-12-31T22:08:45;19.38;;;10.73;;
42964;SDS011;28604;51.204;22.552;2022-12-31T22:11:13;18.23;;;10.05;;
42964;SDS011;28604;51.204;22.552;2022-12-31T22:13:41;16.98;;;10.07;;
42964;SDS011;28604;51.204;22.552;2022-12-31T22:16:07;19.45;;;10.80;;
42964;SDS011;28604;51.204;22.552;2022-12-31T22:18:34;18.98;;;11.13;;
42964;SDS011;28604;51.204;22.552;2022-12-31T22:23:39;15.35;;;9.55;;
42964;SDS011;28604;51.204;22.552;2022-12-31T22:26:06;17.83;;;10.27;;
42964;SDS011;28604;51.204;22.552;2022-12-31T22:28:37;17.63;;;10.65;;
42964;SDS011;28604;51.204;22.552;2022-12-31T22:31:04;20.70;;;11.10;;
42964;SDS011;28604;51.204;22.552;2022-12-31T22:33:31;19.48;;;10.55;;
42964;SDS011;28604;51.204;22.552;2022-12-31T22:36:01;17.30;;;9.57;;
42964;SDS011;28604;51.204;22.552;2022-12-31T22:38:31;19.85;;;10.90;;
42964;SDS011;28604;51.204;22.552;2022-12-31T22:41:11;15.65;;;9.88;;
42964;SDS011;28604;51.204;22.552;2022-12-31T22:43:39;15.98;;;9.68;;
42964;SDS011;28604;51.204;22.552;2022-12-31T22:46:07;20.77;;;9.52;;
42964;SDS011;28604;51.204;22.552;2022-12-31T22:48:34;16.70;;;10.05;;
42964;SDS011;28604;51.204;22.552;2022-12-31T22:51:01;16.25;;;9.77;;
42964;SDS011;28604;51.204;22.552;2022-12-31T22:53:27;15.73;;;9.70;;
42964;SDS011;28604;51.204;22.552;2022-12-31T22:55:53;18.75;;;10.07;;
42964;SDS011;28604;51.204;22.552;2022-12-31T22:58:20;24.10;;;14.20;;
42964;SDS011;28604;51.204;22.552;2022-12-31T23:00:47;33.17;;;19.05;;
42964;SDS011;28604;51.204;22.552;2022-12-31T23:03:13;69.38;;;43.25;;
42964;SDS011;28604;51.204;22.552;2022-12-31T23:05:39;71.90;;;43.03;;
42964;SDS011;28604;51.204;22.552;2022-12-31T23:08:06;54.63;;;34.72;;
42964;SDS011;28604;51.204;22.552;2022-12-31T23:10:33;51.67;;;29.75;;
42964;SDS011;28604;51.204;22.552;2022-12-31T23:13:17;43.90;;;27.50;;
42964;SDS011;28604;51.204;22.552;2022-12-31T23:16:02;44.75;;;27.42;;
42964;SDS011;28604;51.204;22.552;2022-12-31T23:18:47;38.75;;;22.23;;
42964;SDS011;28604;51.204;22.552;2022-12-31T23:21:32;28.88;;;17.05;;
42964;SDS011;28604;51.204;22.552;2022-12-31T23:24:17;26.45;;;14.95;;
42964;SDS011;28604;51.204;22.552;2022-12-31T23:26:43;26.38;;;15.38;;
42964;SDS011;28604;51.204;22.552;2022-12-31T23:29:09;25.40;;;16.40;;
42964;SDS011;28604;51.204;22.552;2022-12-31T23:31:36;25.92;;;16.95;;
42964;SDS011;28604;51.204;22.552;2022-12-31T23:34:02;27.92;;;15.85;;
42964;SDS011;28604;51.204;22.552;2022-12-31T23:36:28;29.15;;;16.50;;
42964;SDS011;28604;51.204;22.552;2022-12-31T23:38:54;26.23;;;15.20;;
42964;SDS011;28604;51.204;22.552;2022-12-31T23:41:21;22.67;;;15.07;;
42964;SDS011;28604;51.204;22.552;2022-12-31T23:43:47;22.80;;;14.43;;
42964;SDS011;28604;51.204;22.552;2022-12-31T23:46:14;23.30;;;14.15;;
42964;SDS011;28604;51.204;22.552;2022-12-31T23:48:41;20.90;;;11.65;;
42964;SDS011;28604;51.204;22.552;2022-12-31T23:51:07;21.23;;;11.77;;
42964;SDS011;28604;51.204;22.552;2022-12-31T23:53:33;14.85;;;10.52;;
42964;SDS011;28604;51.204;22.552;2022-12-31T23:56:05;15.90;;;10.07;;
42964;SDS011;28604;51.204;22.552;2022-12-31T23:58:32;15.93;;;9.82;;
